Time;durP1;ratioP1;P1;durP2;ratioP2;P2;SDS_P1;SDS_P2;PMS_P1;PMS_P2;Temp;Humidity;BMP_temperature;BMP_pressure;BME280_temperature;BME280_humidity;BME280_pressure;Samples;Min_cycle;Max_cycle;Signal;HPM_P1;HPM_P2
2022/04/12 00:01:07;;;;;;;0.82;0.20;;;;;;;18.67;43.83;101084.56;4984626;28;20030;-48
2022/04/12 00:03:32;;;;;;;1.05;0.22;;;;;;;18.67;43.77;101079.28;4985203;28;20026;-49
2022/04/12 00:05:58;;;;;;;0.98;0.30;;;;;;;18.66;43.88;101073.19;4988247;28;20045;-52
2022/04/12 00:08:24;;;;;;;1.20;0.20;;;;;;;18.66;43.84;101067.91;4987116;28;20057;-51
2022/04/12 00:10:50;;;;;;;1.42;0.20;;;;;;;18.65;43.78;101071.56;4987769;28;20033;-52
2022/04/12 00:13:19;;;;;;;0.82;0.30;;;;;;;18.66;43.83;101067.91;4984429;28;20309;-49
2022/04/12 00:15:48;;;;;;;1.30;0.20;;;;;;;18.67;43.91;101060.81;4988204;28;20042;-49
2022/04/12 00:20:57;;;;;;;1.63;0.22;;;;;;;18.67;43.84;101059.00;4968854;28;20073;-49
2022/04/12 00:23:23;;;;;;;1.13;0.28;;;;;;;18.68;43.77;101055.34;4978154;28;20034;-49
2022/04/12 00:25:48;;;;;;;0.85;0.20;;;;;;;18.68;44.09;101055.34;4987569;28;20035;-50
2022/04/12 00:28:15;;;;;;;1.00;0.30;;;;;;;18.72;43.89;101055.81;4984535;28;20053;-49
2022/04/12 00:30:42;;;;;;;3.70;0.20;;;;;;;18.72;43.71;101058.44;4983495;28;20475;-52
2022/04/12 00:33:07;;;;;;;0.45;0.20;;;;;;;18.71;43.88;101054.16;4984971;28;20022;-50
2022/04/12 00:35:33;;;;;;;0.57;0.22;;;;;;;18.73;43.81;101052.16;4985634;28;20444;-49
2022/04/12 00:37:59;;;;;;;0.50;0.25;;;;;;;18.73;43.62;101053.00;4985250;28;20092;-50
2022/04/12 00:40:25;;;;;;;0.85;0.20;;;;;;;18.74;43.71;101048.53;4985530;28;20034;-49
2022/04/12 00:42:52;;;;;;;3.17;0.20;;;;;;;18.74;43.65;101043.25;4987404;28;20478;-50
2022/04/12 00:45:18;;;;;;;0.75;0.20;;;;;;;18.73;43.70;101044.25;4984294;28;20066;-49
2022/04/12 00:47:44;;;;;;;0.90;0.20;;;;;;;18.71;43.79;101047.06;4983371;28;20121;-48
2022/04/12 00:50:11;;;;;;;1.15;0.20;;;;;;;18.70;43.82;101045.44;4983059;28;20117;-49
2022/04/12 00:52:44;;;;;;;0.93;0.40;;;;;;;18.68;43.84;101038.69;4986474;28;20039;-50
2022/04/12 00:55:10;;;;;;;1.20;0.30;;;;;;;18.68;43.75;101036.88;4984106;28;20033;-47
2022/04/12 00:57:37;;;;;;;0.50;0.32;;;;;;;18.69;43.89;101035.88;4987394;28;20022;-47
2022/04/12 01:00:05;;;;;;;1.35;0.20;;;;;;;18.68;43.89;101033.41;4985834;28;20133;-49
2022/04/12 01:02:32;;;;;;;0.82;0.20;;;;;;;18.68;43.88;101034.25;4987333;28;20038;-48
2022/04/12 01:04:59;;;;;;;1.35;0.28;;;;;;;18.67;43.85;101039.69;4985466;28;20034;-51
2022/04/12 01:07:25;;;;;;;0.80;0.30;;;;;;;18.66;43.90;101030.97;4986698;28;20034;-49
2022/04/12 01:09:52;;;;;;;1.02;0.20;;;;;;;18.66;43.84;101033.59;4985160;28;20037;-49
2022/04/12 01:12:21;;;;;;;0.55;0.20;;;;;;;18.65;43.71;101029.31;4986188;28;20062;-51
2022/04/12 01:14:46;;;;;;;0.85;0.30;;;;;;;18.65;43.88;101034.59;4986069;28;20418;-50
2022/04/12 01:17:12;;;;;;;0.77;0.20;;;;;;;18.64;43.87;101032.97;4986526;28;20031;-48
2022/04/12 01:19:37;;;;;;;1.30;0.20;;;;;;;18.64;43.83;101032.16;4975154;28;20394;-52
2022/04/12 01:22:05;;;;;;;2.55;0.20;;;;;;;18.63;43.96;101033.97;4972947;28;20498;-52
2022/04/12 01:24:34;;;;;;;0.95;0.20;;;;;;;18.61;43.85;101033.34;4989972;28;20100;-48
2022/04/12 01:27:00;;;;;;;1.15;0.30;;;;;;;18.62;43.95;101034.97;4990492;28;20105;-49
2022/04/12 01:29:31;;;;;;;0.45;0.20;;;;;;;18.62;43.85;101024.41;4988734;28;20128;-49
2022/04/12 01:31:56;;;;;;;0.50;0.20;;;;;;;18.61;43.90;101028.06;4990583;28;20414;-52
2022/04/12 01:34:22;;;;;;;0.40;0.20;;;;;;;18.62;43.84;101021.78;4989586;28;20038;-51
2022/04/12 01:36:47;;;;;;;0.50;0.20;;;;;;;18.62;43.89;101023.59;4989358;28;20703;-50
2022/04/12 01:39:12;;;;;;;0.95;0.20;;;;;;;18.62;43.83;101019.13;4988539;28;20092;-53
2022/04/12 01:41:38;;;;;;;1.15;0.20;;;;;;;18.62;43.84;101013.84;4988665;28;20049;-51
2022/04/12 01:44:04;;;;;;;1.17;0.35;;;;;;;18.61;43.92;101017.50;4989890;28;20464;-52
2022/04/12 01:46:29;;;;;;;1.95;0.30;;;;;;;18.62;43.88;101019.13;4989456;28;20051;-51
2022/04/12 01:48:54;;;;;;;1.00;0.20;;;;;;;18.61;43.93;101012.22;4987403;28;20096;-50
2022/04/12 01:51:20;;;;;;;0.80;0.20;;;;;;;18.60;43.99;101002.66;4990373;28;20031;-48
2022/04/12 01:53:45;;;;;;;0.88;0.30;;;;;;;18.59;44.04;101006.28;4989451;28;20041;-51
2022/04/12 01:56:11;;;;;;;1.48;0.30;;;;;;;18.60;43.95;101004.44;4986002;28;20027;-46
2022/04/12 01:58:36;;;;;;;4.13;0.30;;;;;;;18.59;43.98;101003.63;4988754;28;20042;-48
2022/04/12 02:01:02;;;;;;;1.17;0.20;;;;;;;18.58;44.15;100999.34;4987537;28;20096;-47
2022/04/12 02:03:28;;;;;;;1.52;0.30;;;;;;;18.59;44.24;100998.34;4989537;28;20081;-52
2022/04/12 02:05:54;;;;;;;3.72;0.50;;;;;;;18.58;43.82;100999.34;4988885;28;20026;-48
2022/04/12 02:08:21;;;;;;;1.35;0.25;;;;;;;18.57;44.21;100995.91;4988166;28;20038;-49
2022/04/12 02:13:22;;;;;;;1.15;0.20;;;;;;;18.55;44.20;100997.09;4758381;22;20060;-55
2022/04/12 02:15:47;;;;;;;3.15;0.30;;;;;;;18.56;44.24;100996.09;5030905;28;20025;-58
2022/04/12 02:18:12;;;;;;;2.08;0.20;;;;;;;18.55;44.31;100997.91;5029455;28;20350;-58
2022/04/12 02:20:38;;;;;;;1.55;0.30;;;;;;;18.54;44.16;100995.44;5029719;28;20163;-58
2022/04/12 02:23:03;;;;;;;0.90;0.20;;;;;;;18.54;44.21;100990.16;5030428;28;20065;-57
2022/04/12 02:25:29;;;;;;;1.65;0.20;;;;;;;18.53;44.32;100986.72;5029889;28;20037;-58
2022/04/12 02:27:54;;;;;;;1.45;0.50;;;;;;;18.52;44.27;100977.16;5030292;28;20110;-58
2022/04/12 02:30:19;;;;;;;1.50;0.30;;;;;;;18.52;44.18;100978.97;5030412;28;20029;-57
2022/04/12 02:32:45;;;;;;;0.98;0.20;;;;;;;18.52;44.13;100981.63;5030330;28;20447;-58
2022/04/12 02:35:10;;;;;;;0.70;0.20;;;;;;;18.52;43.98;100982.44;5030189;28;20193;-58
2022/04/12 02:37:36;;;;;;;0.80;0.20;;;;;;;18.53;43.99;100989.34;5029906;28;20029;-57
2022/04/12 02:40:03;;;;;;;0.88;0.20;;;;;;;18.55;44.01;100992.63;5029602;28;20030;-57
2022/04/12 02:42:29;;;;;;;0.80;0.30;;;;;;;18.56;44.08;100989.00;5029941;28;20029;-57
2022/04/12 02:44:54;;;;;;;2.40;0.20;;;;;;;18.57;44.00;100982.72;5030114;28;20093;-57
2022/04/12 02:47:24;;;;;;;2.13;0.20;;;;;;;18.58;44.02;100986.16;5028453;28;20040;-58
2022/04/12 02:49:49;;;;;;;1.58;0.30;;;;;;;18.58;43.97;100978.25;5029999;28;20496;-57
2022/04/12 02:52:15;;;;;;;0.90;0.20;;;;;;;18.59;43.91;100971.97;5029990;28;20124;-58
2022/04/12 02:54:40;;;;;;;0.88;0.22;;;;;;;18.59;43.93;100969.34;5030135;28;20423;-58
2022/04/12 02:57:06;;;;;;;2.40;0.30;;;;;;;18.60;43.96;100970.16;5029867;28;20056;-58
2022/04/12 02:59:31;;;;;;;2.35;0.30;;;;;;;18.60;44.09;100978.91;5029684;28;20061;-57
2022/04/12 03:01:57;;;;;;;0.50;0.20;;;;;;;18.60;43.98;100978.06;5029404;28;20462;-57
2022/04/12 03:04:22;;;;;;;1.00;0.20;;;;;;;18.60;43.94;100970.16;5029123;28;20037;-57
2022/04/12 03:06:47;;;;;;;2.10;0.20;;;;;;;18.58;43.89;100976.44;5029495;28;20021;-58
2022/04/12 03:09:13;;;;;;;1.02;0.30;;;;;;;18.58;43.97;100971.16;5029465;28;20052;-57
2022/04/12 03:11:39;;;;;;;0.90;0.20;;;;;;;18.56;43.85;100967.88;5029311;28;20033;-57
2022/04/12 03:14:05;;;;;;;1.27;0.20;;;;;;;18.56;43.93;100973.16;5029393;28;20407;-57
2022/04/12 03:16:30;;;;;;;0.77;0.20;;;;;;;18.55;43.96;100975.97;5029357;28;20029;-58
2022/04/12 03:18:56;;;;;;;1.50;0.20;;;;;;;18.54;44.04;100975.16;5029490;28;20029;-57
2022/04/12 03:21:21;;;;;;;0.82;0.30;;;;;;;18.54;43.93;100976.97;5029294;28;20032;-57
2022/04/12 03:23:46;;;;;;;1.80;0.30;;;;;;;18.54;44.07;100974.34;5029847;28;20040;-55
2022/04/12 03:26:12;;;;;;;1.80;0.20;;;;;;;18.52;43.95;100974.53;5029079;28;20392;-58
2022/04/12 03:28:37;;;;;;;1.10;0.17;;;;;;;18.52;44.11;100976.34;5028815;28;20430;-57
2022/04/12 03:31:03;;;;;;;0.70;0.20;;;;;;;18.49;43.88;100977.53;5027402;28;20048;-58
2022/04/12 03:33:28;;;;;;;2.05;0.20;;;;;;;18.49;43.87;100980.16;5028465;28;20037;-57
2022/04/12 03:35:54;;;;;;;0.60;0.28;;;;;;;18.49;43.81;100979.34;5028300;28;20029;-57
2022/04/12 03:38:19;;;;;;;2.70;0.20;;;;;;;18.49;43.92;100979.34;5028260;28;20029;-56
2022/04/12 03:40:46;;;;;;;1.20;0.22;;;;;;;18.48;44.05;100980.34;5028717;28;20036;-56
2022/04/12 03:43:12;;;;;;;1.40;0.20;;;;;;;18.48;43.86;100980.34;5028119;28;20127;-57
2022/04/12 03:45:37;;;;;;;1.33;0.20;;;;;;;18.47;43.91;100973.44;5028228;28;20128;-57
2022/04/12 03:48:04;;;;;;;1.08;0.22;;;;;;;18.48;44.00;100975.88;5028274;28;20085;-57
2022/04/12 03:50:31;;;;;;;0.88;0.20;;;;;;;18.47;43.96;100976.06;5028718;28;20033;-58
2022/04/12 03:52:56;;;;;;;0.73;0.20;;;;;;;18.47;43.58;100974.25;5028914;28;20029;-58
2022/04/12 03:55:31;;;;;;;0.70;0.20;;;;;;;18.48;44.01;100980.34;5028998;28;20132;-58
2022/04/12 03:58:01;;;;;;;0.52;0.20;;;;;;;18.46;44.06;100977.88;5028502;28;20453;-58
2022/04/12 04:00:27;;;;;;;0.40;0.10;;;;;;;18.47;43.97;100986.63;5026843;28;20107;-56
2022/04/12 04:02:53;;;;;;;0.93;0.20;;;;;;;18.47;44.02;100994.53;5028835;28;20069;-58
2022/04/12 04:05:19;;;;;;;0.47;0.30;;;;;;;18.48;44.01;100990.91;5028782;28;20060;-58
2022/04/12 04:07:44;;;;;;;0.40;0.20;;;;;;;18.47;43.99;100994.53;5028428;28;20029;-58
2022/04/12 04:10:10;;;;;;;0.85;0.20;;;;;;;18.46;44.05;100993.72;5028792;28;20088;-57
2022/04/12 04:12:35;;;;;;;0.57;0.20;;;;;;;18.46;44.03;100998.19;5028355;28;20337;-57
2022/04/12 04:15:01;;;;;;;1.55;0.20;;;;;;;18.45;44.10;100999.19;5028496;28;20132;-58
2022/04/12 04:17:26;;;;;;;0.70;0.28;;;;;;;18.45;44.11;100996.53;5028402;28;20026;-58
2022/04/12 04:19:51;;;;;;;1.63;0.20;;;;;;;18.44;44.09;101000.19;5028216;28;20461;-57
2022/04/12 04:22:17;;;;;;;0.52;0.20;;;;;;;18.43;44.04;100993.28;5028146;28;20025;-58
2022/04/12 04:24:42;;;;;;;0.80;0.17;;;;;;;18.42;44.07;100992.47;5027580;28;20029;-55
2022/04/12 04:27:08;;;;;;;0.57;0.32;;;;;;;18.42;43.97;101000.41;5027354;28;20040;-56
2022/04/12 04:29:35;;;;;;;1.58;0.25;;;;;;;18.41;44.30;100996.13;5027769;28;20377;-57
2022/04/12 04:32:00;;;;;;;4.35;0.30;;;;;;;18.43;44.91;100999.34;5027433;28;20025;-57
2022/04/12 04:34:26;;;;;;;6.68;4.05;;;;;;;18.51;46.50;101006.38;5025264;28;20036;-55
2022/04/12 04:36:51;;;;;;;2.03;1.00;;;;;;;18.54;47.25;101000.72;5007688;28;20030;-57
2022/04/12 04:39:17;;;;;;;2.50;0.50;;;;;;;18.53;46.90;101012.28;5021567;28;20059;-56
2022/04/12 04:41:42;;;;;;;3.03;0.32;;;;;;;18.49;46.31;101006.56;5027654;28;20025;-56
2022/04/12 04:44:08;;;;;;;1.65;0.50;;;;;;;18.47;46.07;101003.28;5026100;28;20143;-55
2022/04/12 04:46:33;;;;;;;4.13;0.30;;;;;;;18.44;46.07;101011.56;5025357;28;20470;-56
2022/04/12 04:48:59;;;;;;;3.05;0.35;;;;;;;18.43;45.82;101015.19;5020928;28;20458;-54
2022/04/12 04:51:24;;;;;;;6.13;0.30;;;;;;;18.42;46.15;101010.94;5027441;28;20036;-57
2022/04/12 04:53:57;;;;;;;2.80;0.20;;;;;;;18.43;45.91;101019.69;5023607;28;20513;-58
2022/04/12 04:56:23;;;;;;;2.97;0.30;;;;;;;18.44;45.60;101013.38;5017677;28;20037;-58
2022/04/12 04:58:48;;;;;;;3.22;0.30;;;;;;;18.45;45.79;101015.81;5013483;28;20064;-58
2022/04/12 05:01:14;;;;;;;4.90;0.50;;;;;;;18.48;45.53;101019.91;5029965;28;20547;-56
2022/04/12 05:03:39;;;;;;;4.68;0.32;;;;;;;18.49;45.31;101021.56;5028337;28;20029;-54
2022/04/12 05:06:05;;;;;;;1.05;0.20;;;;;;;18.50;45.15;101020.56;5030933;28;20056;-56
2022/04/12 05:08:30;;;;;;;2.10;0.20;;;;;;;18.50;45.10;101016.09;5029733;28;20091;-55
2022/04/12 05:10:55;;;;;;;3.80;0.52;;;;;;;18.51;45.17;101022.19;5029519;28;20055;-56
2022/04/12 05:13:21;;;;;;;1.63;0.22;;;;;;;18.51;44.91;101024.84;5030386;28;20049;-57
2022/04/12 05:15:46;;;;;;;4.32;0.30;;;;;;;18.52;44.79;101019.38;5030948;28;20156;-57
2022/04/12 05:18:12;;;;;;;5.85;0.40;;;;;;;18.52;44.79;101031.75;5030444;28;20083;-52
2022/04/12 05:20:38;;;;;;;1.88;0.20;;;;;;;18.52;44.71;101029.94;5030854;28;20493;-57
2022/04/12 05:23:03;;;;;;;1.55;0.20;;;;;;;18.53;44.65;101025.47;5030687;28;20097;-55
2022/04/12 05:25:28;;;;;;;1.83;0.20;;;;;;;18.52;44.66;101024.66;5030719;28;20424;-56
2022/04/12 05:27:54;;;;;;;5.13;0.30;;;;;;;18.52;44.61;101029.13;5028784;28;20176;-57
2022/04/12 05:30:21;;;;;;;3.70;0.30;;;;;;;18.51;44.62;101030.94;5030676;28;20025;-54
2022/04/12 05:32:47;;;;;;;1.50;0.20;;;;;;;18.52;44.57;101034.38;5028829;28;20105;-55
2022/04/12 05:35:13;;;;;;;1.45;0.30;;;;;;;18.49;44.52;101030.28;5025198;28;20120;-55
2022/04/12 05:37:45;;;;;;;3.58;0.38;;;;;;;18.48;44.48;101030.47;5030375;28;20112;-53
2022/04/12 05:40:13;;;;;;;0.80;0.20;;;;;;;18.48;44.43;101033.94;5027014;28;20121;-56
2022/04/12 05:42:39;;;;;;;1.80;0.20;;;;;;;18.47;44.35;101042.03;5018260;28;20049;-56
2022/04/12 05:45:09;;;;;;;2.40;0.20;;;;;;;18.47;44.29;101036.75;5027505;28;20573;-54
2022/04/12 05:47:42;;;;;;;2.22;0.30;;;;;;;18.45;44.29;101044.03;5027150;28;20132;-54
2022/04/12 05:50:08;;;;;;;1.77;0.20;;;;;;;18.44;44.22;101037.94;5026501;28;20041;-56
2022/04/12 05:52:34;;;;;;;2.45;0.38;;;;;;;18.44;44.31;101042.41;5028538;28;20030;-57
2022/04/12 05:54:59;;;;;;;1.55;0.47;;;;;;;18.43;44.18;101051.34;5029947;28;20396;-55
2022/04/12 05:57:24;;;;;;;1.67;0.20;;;;;;;18.43;44.12;101051.34;5019555;28;20026;-55
2022/04/12 05:59:50;;;;;;;4.32;0.30;;;;;;;18.42;44.36;101060.25;5013817;28;20042;-57
2022/04/12 06:02:15;;;;;;;2.58;0.40;;;;;;;18.41;44.25;101058.63;5029071;28;20087;-58
2022/04/12 06:04:40;;;;;;;2.53;0.20;;;;;;;18.42;44.30;101060.25;5020977;28;20034;-57
2022/04/12 06:07:06;;;;;;;1.75;0.30;;;;;;;18.43;44.14;101069.81;5009710;28;20060;-55
2022/04/12 06:09:31;;;;;;;3.13;0.20;;;;;;;18.42;44.21;101068.16;5029435;28;20501;-56
2022/04/12 06:11:57;;;;;;;0.80;0.20;;;;;;;18.42;44.20;101065.53;5026708;28;20088;-53
2022/04/12 06:14:22;;;;;;;0.93;0.20;;;;;;;18.41;44.37;101067.34;5018053;28;20029;-56
2022/04/12 06:16:47;;;;;;;2.45;0.30;;;;;;;18.41;44.27;101071.81;5015634;28;20455;-56
2022/04/12 06:19:13;;;;;;;1.38;0.20;;;;;;;18.41;44.18;101069.16;5022261;28;20084;-56
2022/04/12 06:21:38;;;;;;;5.25;0.30;;;;;;;18.41;44.30;101077.09;5029038;28;20032;-54
2022/04/12 06:24:04;;;;;;;1.55;0.20;;;;;;;18.41;44.33;101069.16;5023367;28;20034;-57
2022/04/12 06:26:29;;;;;;;2.55;0.20;;;;;;;18.40;44.17;101068.34;5017386;28;20543;-53
2022/04/12 06:28:55;;;;;;;0.52;0.20;;;;;;;18.40;44.14;101068.34;5029737;28;20064;-55
2022/04/12 06:31:20;;;;;;;2.58;0.20;;;;;;;18.37;44.25;101065.25;5029366;28;20030;-57
2022/04/12 06:33:45;;;;;;;5.28;0.30;;;;;;;18.39;44.92;101071.16;5029167;28;20060;-58
2022/04/12 06:36:11;;;;;;;3.85;0.28;;;;;;;18.39;45.46;101065.88;5028983;28;20041;-54
2022/04/12 06:38:36;;;;;;;1.27;0.20;;;;;;;18.42;45.85;101065.53;5029240;28;20080;-54
2022/04/12 06:41:02;;;;;;;3.83;0.38;;;;;;;18.43;46.08;101078.50;5028763;28;20080;-54
2022/04/12 06:43:27;;;;;;;4.28;0.38;;;;;;;18.46;46.61;101078.16;5028476;28;20422;-54
2022/04/12 06:45:52;;;;;;;3.75;0.40;;;;;;;18.44;46.67;101081.97;5029102;28;20041;-56
2022/04/12 06:48:18;;;;;;;4.88;0.30;;;;;;;18.44;46.74;101085.44;5029259;28;20025;-56
2022/04/12 06:50:43;;;;;;;2.58;0.43;;;;;;;18.44;47.24;101081.97;5029337;28;20120;-57
2022/04/12 06:53:09;;;;;;;1.55;0.15;;;;;;;18.44;47.28;101089.88;5028601;28;20870;-56
2022/04/12 06:55:34;;;;;;;2.42;0.60;;;;;;;18.42;47.10;101089.28;5027098;28;20025;-55
2022/04/12 06:57:59;;;;;;;1.52;0.20;;;;;;;18.39;47.11;101094.91;5029134;28;20531;-56
2022/04/12 07:00:27;;;;;;;2.03;0.17;;;;;;;18.38;46.90;101085.34;5027481;28;20104;-59
2022/04/12 07:02:54;;;;;;;2.78;0.20;;;;;;;18.39;47.04;101087.00;5028734;28;20029;-56
2022/04/12 07:05:19;;;;;;;1.10;0.22;;;;;;;18.39;47.08;101084.34;5028692;28;20039;-55
2022/04/12 07:07:45;;;;;;;4.55;0.20;;;;;;;18.39;47.64;101087.00;5028912;28;20108;-56
2022/04/12 07:10:13;;;;;;;1.33;0.20;;;;;;;18.43;48.55;101088.28;5027522;28;20112;-55
2022/04/12 07:12:39;;;;;;;0.43;0.10;;;;;;;18.42;47.62;101081.34;5027540;28;20053;-55
2022/04/12 07:15:06;;;;;;;2.38;0.20;;;;;;;18.43;47.29;101085.63;5028501;28;20029;-53
2022/04/12 07:17:31;;;;;;;7.55;0.30;;;;;;;18.43;46.78;101086.41;5027893;28;20588;-53
2022/04/12 07:19:57;;;;;;;2.58;0.20;;;;;;;18.43;46.59;101083.78;5027859;28;20128;-56
2022/04/12 07:22:22;;;;;;;0.57;0.20;;;;;;;18.45;46.50;101083.59;5028035;28;20029;-54
2022/04/12 07:24:48;;;;;;;1.85;0.40;;;;;;;18.44;46.30;101076.69;5028375;28;20066;-57
2022/04/12 07:27:13;;;;;;;2.97;0.38;;;;;;;18.46;46.26;101082.59;5028054;28;20082;-53
2022/04/12 07:29:38;;;;;;;3.65;0.20;;;;;;;18.46;46.15;101078.16;5028247;28;20305;-55
2022/04/12 07:32:04;;;;;;;3.00;0.20;;;;;;;18.47;46.11;101078.97;5027974;28;20052;-55
2022/04/12 07:34:30;;;;;;;2.30;0.20;;;;;;;18.48;46.06;101086.69;5027927;28;20026;-53
2022/04/12 07:36:56;;;;;;;2.47;0.32;;;;;;;18.47;45.78;101082.44;5028307;28;20393;-55
2022/04/12 07:39:22;;;;;;;2.78;0.20;;;;;;;18.48;44.71;101088.53;5028001;28;20028;-57
2022/04/12 07:41:49;;;;;;;8.73;0.40;;;;;;;18.45;43.71;101080.97;5026600;28;20445;-54
2022/04/12 07:44:15;;;;;;;6.15;0.90;;;;;;;18.45;43.01;101087.06;5028676;28;20026;-56
2022/04/12 07:46:41;;;;;;;7.18;0.45;;;;;;;18.45;43.00;101091.53;5028177;28;20104;-55
2022/04/12 07:49:07;;;;;;;3.50;0.20;;;;;;;18.45;43.31;101094.16;5027947;28;20187;-53
2022/04/12 07:51:32;;;;;;;6.97;0.43;;;;;;;18.42;43.25;101087.44;5028006;28;20029;-54
2022/04/12 07:53:58;;;;;;;6.45;0.20;;;;;;;18.42;43.10;101086.63;5026715;28;20022;-55
2022/04/12 07:56:23;;;;;;;1.45;0.20;;;;;;;18.38;42.53;101086.19;5026690;28;20151;-56
2022/04/12 07:58:49;;;;;;;1.45;0.30;;;;;;;18.36;41.64;101085.53;5028358;28;20465;-58
2022/04/12 08:01:14;;;;;;;1.63;0.20;;;;;;;18.32;41.23;101086.88;5026975;28;20038;-55
2022/04/12 08:03:40;;;;;;;5.07;0.20;;;;;;;18.32;40.91;101083.44;5023036;28;20056;-55
2022/04/12 08:06:06;;;;;;;2.15;0.20;;;;;;;18.32;40.76;101088.72;5027404;28;20024;-54
2022/04/12 08:08:32;;;;;;;4.43;0.20;;;;;;;18.31;40.60;101089.72;5027310;28;20200;-50
2022/04/12 08:10:58;;;;;;;2.80;0.30;;;;;;;18.28;40.47;101095.34;5027542;28;20048;-57
2022/04/12 08:13:24;;;;;;;1.15;0.15;;;;;;;18.27;40.46;101091.06;5020914;28;20045;-56
2022/04/12 08:15:49;;;;;;;2.55;0.57;;;;;;;18.26;40.37;101087.59;5026373;28;20029;-54
2022/04/12 08:18:15;;;;;;;1.05;0.20;;;;;;;18.27;40.71;101099.78;5009269;28;20520;-55
2022/04/12 08:20:40;;;;;;;0.68;0.10;;;;;;;18.30;41.09;101090.72;5014103;28;20620;-54
2022/04/12 08:23:06;;;;;;;6.05;0.52;;;;;;;18.33;42.06;101087.72;5024664;28;20029;-53
2022/04/12 08:25:32;;;;;;;4.60;0.30;;;;;;;18.37;42.86;101094.25;5026467;28;20041;-58
2022/04/12 08:27:58;;;;;;;0.73;0.20;;;;;;;18.37;42.85;101087.16;5026539;28;20025;-53
2022/04/12 08:30:23;;;;;;;4.50;0.30;;;;;;;18.36;42.82;101088.16;5016970;28;20052;-55
2022/04/12 08:32:49;;;;;;;2.83;0.20;;;;;;;18.36;42.72;101092.63;5031139;28;20433;-54
2022/04/12 08:35:15;;;;;;;2.33;0.30;;;;;;;18.36;42.68;101092.63;5029402;28;20423;-55
2022/04/12 08:37:40;;;;;;;4.43;0.20;;;;;;;18.36;42.64;101084.72;5030650;28;20034;-56
2022/04/12 08:40:06;;;;;;;0.80;0.17;;;;;;;18.35;42.62;101085.72;5030510;28;20025;-54
2022/04/12 08:42:32;;;;;;;0.63;0.10;;;;;;;18.33;42.81;101087.72;5030652;28;20064;-57
2022/04/12 08:44:58;;;;;;;0.95;0.28;;;;;;;18.33;42.85;101087.72;5028745;28;20107;-55
2022/04/12 08:47:25;;;;;;;1.20;0.15;;;;;;;18.32;42.85;101093.97;5030192;28;20064;-56
2022/04/12 08:49:50;;;;;;;0.90;0.10;;;;;;;18.30;42.79;101094.16;5030309;28;20096;-54
2022/04/12 08:52:16;;;;;;;2.10;0.20;;;;;;;18.30;42.74;101090.72;5030178;28;20493;-55
2022/04/12 08:54:44;;;;;;;2.10;0.20;;;;;;;18.31;42.74;101089.72;5029785;28;20136;-55
2022/04/12 08:57:12;;;;;;;1.80;0.10;;;;;;;18.30;42.73;101082.78;5011015;28;20038;-56
2022/04/12 08:59:38;;;;;;;1.42;0.20;;;;;;;18.30;42.90;101080.97;5010908;28;20026;-55
2022/04/12 09:02:07;;;;;;;1.13;0.20;;;;;;;18.29;42.63;101087.25;5010584;28;20331;-56
2022/04/12 09:04:33;;;;;;;1.27;0.20;;;;;;;18.28;42.63;101076.88;5022916;28;20029;-56
2022/04/12 09:07:00;;;;;;;0.52;0.20;;;;;;;18.29;42.61;101078.50;5017743;28;20104;-54
2022/04/12 09:09:28;;;;;;;0.63;0.17;;;;;;;18.27;42.88;101076.06;5028422;28;20071;-57
2022/04/12 09:12:06;;;;;;;2.28;0.20;;;;;;;18.27;42.59;101072.59;5030107;28;20040;-55
2022/04/12 09:14:58;;;;;;;0.80;0.30;;;;;;;18.23;42.72;101072.97;5030013;28;20053;-57
2022/04/12 09:17:31;;;;;;;1.50;0.20;;;;;;;18.24;42.77;101077.22;5027554;28;20068;-53
2022/04/12 09:19:57;;;;;;;2.75;0.20;;;;;;;18.23;42.65;101072.97;5010502;28;20026;-52
2022/04/12 09:22:27;;;;;;;1.88;0.30;;;;;;;18.24;42.71;101071.13;5018355;28;20087;-54
2022/04/12 09:24:53;;;;;;;1.10;0.20;;;;;;;18.24;42.69;101068.50;5029974;28;20409;-57
2022/04/12 09:27:44;;;;;;;2.28;0.10;;;;;;;18.23;42.86;101062.41;5030140;28;20794;-53
2022/04/12 09:30:12;;;;;;;0.98;0.30;;;;;;;18.23;42.94;101064.22;5029176;28;20030;-54
2022/04/12 09:32:41;;;;;;;4.40;0.30;;;;;;;18.24;43.08;101064.03;5029681;28;20385;-56
2022/04/12 09:35:08;;;;;;;1.42;0.10;;;;;;;18.26;43.14;101057.78;5030685;28;20100;-56
2022/04/12 09:37:38;;;;;;;1.48;0.25;;;;;;;18.24;43.00;101064.03;5030353;28;20120;-56
2022/04/12 09:40:04;;;;;;;0.70;0.10;;;;;;;18.27;43.40;101059.41;5030516;28;20060;-58
2022/04/12 09:42:48;;;;;;;1.90;0.20;;;;;;;18.26;43.15;101049.84;5029262;28;20063;-53
2022/04/12 09:45:19;;;;;;;1.42;0.20;;;;;;;18.27;43.16;101048.84;5030219;28;20238;-52
2022/04/12 09:47:46;;;;;;;1.20;0.20;;;;;;;18.30;43.29;101059.88;5024618;28;20030;-57
2022/04/12 09:50:12;;;;;;;2.55;0.10;;;;;;;18.32;43.27;101054.41;5024388;28;20305;-56
2022/04/12 09:52:39;;;;;;;1.08;0.10;;;;;;;18.32;43.28;101046.50;5018802;28;20030;-59
2022/04/12 09:55:08;;;;;;;1.30;0.10;;;;;;;18.33;43.50;101048.13;5019248;28;20642;-55
2022/04/12 09:57:38;;;;;;;1.23;0.20;;;;;;;18.34;43.75;101049.78;5019672;28;20087;-55
2022/04/12 10:00:04;;;;;;;2.90;0.52;;;;;;;18.35;44.02;101038.22;5016265;28;20625;-53
2022/04/12 10:02:31;;;;;;;1.38;0.10;;;;;;;18.36;44.21;101039.88;5022421;28;20512;-56
2022/04/12 10:04:56;;;;;;;0.60;0.20;;;;;;;18.38;44.41;101040.50;5029502;28;20033;-55
2022/04/12 10:07:25;;;;;;;0.88;0.10;;;;;;;18.38;44.56;101037.88;5029287;28;20056;-56
2022/04/12 10:09:51;;;;;;;1.77;0.30;;;;;;;18.39;44.76;101039.50;5014495;28;20044;-56
2022/04/12 10:12:18;;;;;;;2.42;0.20;;;;;;;18.39;44.83;101035.06;5016050;28;20052;-55
2022/04/12 10:14:44;;;;;;;2.95;0.15;;;;;;;18.39;44.80;101032.41;5014925;28;20038;-57
2022/04/12 10:17:12;;;;;;;1.88;0.10;;;;;;;18.38;45.03;101038.69;5025142;28;20460;-57
2022/04/12 10:19:39;;;;;;;1.25;0.32;;;;;;;18.38;45.14;101037.88;5017610;28;20030;-57
2022/04/12 10:22:04;;;;;;;0.82;0.10;;;;;;;18.36;44.91;101039.88;5021431;28;20040;-58
2022/04/12 10:24:30;;;;;;;1.33;0.10;;;;;;;18.35;44.97;101032.97;5020859;28;20441;-56
2022/04/12 10:26:57;;;;;;;2.63;0.20;;;;;;;18.35;44.85;101038.22;5024880;28;20041;-57
2022/04/12 10:29:22;;;;;;;0.98;0.10;;;;;;;18.34;44.63;101028.69;5024214;28;20029;-56
2022/04/12 10:32:03;;;;;;;0.85;0.15;;;;;;;18.32;44.72;101033.31;5029142;28;20067;-55
2022/04/12 10:34:28;;;;;;;1.08;0.10;;;;;;;18.33;44.72;101025.22;5026173;28;20033;-57
2022/04/12 10:37:05;;;;;;;0.60;0.10;;;;;;;18.32;44.77;101028.84;5022781;28;20147;-56
2022/04/12 10:39:35;;;;;;;1.42;0.10;;;;;;;18.33;44.62;101022.59;5029085;28;20025;-57
2022/04/12 10:42:04;;;;;;;1.27;0.20;;;;;;;18.33;44.67;101019.13;5029316;28;20128;-56
2022/04/12 10:44:36;;;;;;;0.60;0.10;;;;;;;18.33;44.62;101019.13;5034260;28;20300;-56
2022/04/12 10:47:02;;;;;;;0.95;0.10;;;;;;;18.33;44.51;101025.22;5042184;28;20045;-56
2022/04/12 10:49:37;;;;;;;0.52;0.10;;;;;;;18.34;44.59;101028.69;5041671;28;20041;-57
2022/04/12 10:52:07;;;;;;;1.23;0.13;;;;;;;18.34;44.60;101028.69;5040922;28;20439;-56
2022/04/12 10:54:35;;;;;;;1.67;0.10;;;;;;;18.33;44.53;101019.13;5041176;28;20030;-57
2022/04/12 10:57:18;;;;;;;1.48;0.10;;;;;;;18.31;44.47;101011.41;5025717;28;20025;-56
2022/04/12 11:00:08;;;;;;;0.65;0.10;;;;;;;18.32;44.54;101017.50;5031642;28;20079;-56
2022/04/12 11:02:56;;;;;;;0.77;0.15;;;;;;;18.30;44.69;101019.50;5028346;28;20124;-54
2022/04/12 11:05:33;;;;;;;0.68;0.10;;;;;;;18.30;44.82;101016.84;5027346;28;20038;-57
2022/04/12 11:08:00;;;;;;;0.43;0.17;;;;;;;18.31;44.74;101015.84;5029109;28;20033;-55
2022/04/12 11:10:25;;;;;;;0.50;0.10;;;;;;;18.32;44.72;101012.22;5028876;28;20072;-57
2022/04/12 11:13:04;;;;;;;1.85;0.20;;;;;;;18.30;44.77;101006.31;5028016;28;20081;-55
2022/04/12 11:15:31;;;;;;;1.05;0.10;;;;;;;18.31;44.76;101007.94;5026606;28;20037;-55
2022/04/12 11:18:16;;;;;;;1.38;0.10;;;;;;;18.27;44.90;101007.47;5027929;28;20114;-55
2022/04/12 11:20:59;;;;;;;1.08;0.30;;;;;;;18.28;44.88;101010.94;5018820;28;20470;-57
2022/04/12 11:24:08;;;;;;;0.98;0.10;;;;;;;18.24;45.01;101000.75;5024804;28;20148;-56
2022/04/12 11:26:47;;;;;;;3.70;0.10;;;;;;;18.27;45.64;100998.75;4961231;28;20045;-58
2022/04/12 11:29:18;;;;;;;7.97;0.30;;;;;;;18.55;47.18;101003.19;4958174;28;20038;-54